Time;durP1;ratioP1;P1;durP2;ratioP2;P2;SDS_P1;SDS_P2;PMS_P1;PMS_P2;Temp;Humidity;BMP_temperature;BMP_pressure;BME280_temperature;BME280_humidity;BME280_pressure;Samples;Min_cycle;Max_cycle;Signal;HPM_P1;HPM_P2
2022/01/10 00:01:12;;;;;;;4.13;2.53;;;5.10;74.60;;;4.16;58.72;94034.22;5037910;28;20211;-88
2022/01/10 00:03:40;;;;;;;6.10;3.00;;;5.10;73.60;;;4.18;59.00;94041.03;5038889;28;20227;-88
2022/01/10 00:06:08;;;;;;;4.40;3.10;;;5.10;73.60;;;4.18;59.11;94035.84;5038823;28;20689;-87
2022/01/10 00:08:37;;;;;;;4.78;3.03;;;5.10;73.60;;;4.14;59.30;94032.78;5039868;28;20253;-88
2022/01/10 00:11:05;;;;;;;3.13;2.50;;;5.10;73.50;;;4.14;59.07;94035.38;5059041;28;20220;-88
2022/01/10 00:13:32;;;;;;;4.88;2.50;;;5.10;73.50;;;4.12;59.01;94037.34;5059159;28;20203;-87
2022/01/10 00:16:00;;;;;;;5.78;2.55;;;5.10;73.40;;;4.17;58.86;94045.41;5043276;28;20229;-88
2022/01/10 00:18:28;;;;;;;5.88;2.40;;;5.10;73.40;;;4.14;58.72;94043.97;5043040;28;20269;-88
2022/01/10 00:20:55;;;;;;;4.00;2.58;;;5.00;73.30;;;4.13;58.91;94050.13;5038188;28;20227;-88
2022/01/10 00:23:23;;;;;;;7.22;2.58;;;5.00;73.30;;;4.12;58.76;94053.69;5055838;28;20208;-88
2022/01/10 00:25:50;;;;;;;5.50;2.63;;;5.00;73.30;;;4.13;58.75;94052.72;5055437;28;20720;-88
2022/01/10 00:28:17;;;;;;;3.10;2.50;;;5.00;73.30;;;4.13;58.74;94054.53;5058718;28;20641;-88
2022/01/10 00:30:46;;;;;;;2.88;2.20;;;5.00;73.30;;;4.14;58.68;94058.72;5042294;28;20261;-87
2022/01/10 00:33:14;;;;;;;6.00;2.38;;;5.00;73.40;;;4.06;58.77;94040.63;5058536;28;20231;-88
2022/01/10 00:35:41;;;;;;;6.55;2.83;;;5.10;73.50;;;4.11;58.95;94053.88;5041916;28;20220;-88
2022/01/10 00:38:08;;;;;;;5.68;2.42;;;5.10;73.30;;;4.11;58.83;94052.09;5041901;28;20248;-88
2022/01/10 00:40:36;;;;;;;5.07;2.50;;;5.10;73.40;;;4.18;58.56;94056.59;5038676;28;20220;-88
2022/01/10 00:43:03;;;;;;;3.95;2.60;;;5.00;73.40;;;4.18;58.70;94054.00;5055557;28;20754;-88
2022/01/10 00:45:31;;;;;;;4.97;2.40;;;5.10;73.40;;;4.23;58.76;94062.06;5039048;28;20306;-87
2022/01/10 00:48:01;;;;;;;3.60;2.47;;;5.00;73.40;;;4.22;58.72;94057.84;5038657;28;20207;-88
2022/01/10 00:50:29;;;;;;;3.88;2.50;;;5.10;73.50;;;4.21;58.63;94059.66;5056144;28;20228;-88
2022/01/10 00:52:57;;;;;;;4.60;2.28;;;5.10;73.40;;;4.29;58.65;94076.94;5042033;28;20231;-87
2022/01/10 00:55:25;;;;;;;5.22;2.80;;;5.10;73.40;;;4.27;58.56;94073.72;5041669;28;20242;-88
2022/01/10 00:57:52;;;;;;;3.33;2.45;;;5.10;73.40;;;4.24;58.36;94071.47;5058270;28;20225;-88
2022/01/10 01:00:20;;;;;;;4.97;2.78;;;5.10;73.30;;;4.23;58.66;94067.25;5041607;28;20218;-87
2022/01/10 01:02:49;;;;;;;4.03;2.60;;;5.20;73.40;;;4.28;58.57;94086.50;5057819;28;20633;-88
2022/01/10 01:05:20;;;;;;;3.67;2.50;;;5.10;73.30;;;4.27;58.89;94079.72;5041826;28;20218;-89
2022/01/10 01:07:48;;;;;;;4.45;2.60;;;5.10;73.20;;;4.31;58.47;94087.97;5042016;28;20693;-88
2022/01/10 01:12:59;;;;;;;3.47;2.33;;;5.20;73.20;;;4.27;58.40;94084.91;5058155;28;20231;-88
2022/01/10 01:15:34;;;;;;;5.82;2.90;;;5.20;73.20;;;4.21;58.63;94082.19;5043365;28;20708;-88
2022/01/10 01:26:04;;;;;;;3.95;2.50;;;5.10;72.80;;;4.05;58.55;94091.69;5060524;28;20310;-88
2022/01/10 01:28:32;;;;;;;4.45;2.67;;;5.10;72.80;;;4.06;58.41;94095.91;5042016;28;20198;-88
2022/01/10 01:30:59;;;;;;;5.80;2.50;;;5.10;72.80;;;3.97;58.37;94092.56;5037552;28;20694;-88
2022/01/10 01:33:27;;;;;;;4.45;2.90;;;5.10;72.80;;;4.01;58.11;94106.00;5035198;28;20207;-87
2022/01/10 01:35:55;;;;;;;4.80;2.50;;;5.00;72.70;;;3.96;58.69;94093.53;5041178;28;20711;-87
2022/01/10 01:38:23;;;;;;;3.95;2.38;;;5.00;72.90;;;3.92;58.75;94097.47;5037655;28;20220;-88
2022/01/10 01:40:59;;;;;;;4.05;2.55;;;5.00;72.80;;;3.95;58.28;94104.09;5037794;28;20228;-87
2022/01/10 01:43:26;;;;;;;4.15;2.78;;;5.00;72.80;;;3.90;58.43;94101.22;5042215;28;20199;-88
2022/01/10 01:45:54;;;;;;;4.80;2.33;;;4.90;72.70;;;3.78;58.46;94093.00;5040740;28;20242;-88
2022/01/10 01:48:22;;;;;;;3.90;2.80;;;4.90;72.60;;;3.74;58.45;94100.31;5041067;28;20215;-88
2022/01/10 01:50:50;;;;;;;5.95;2.67;;;4.90;72.40;;;3.66;58.48;94105.53;5037286;28;20216;-88
2022/01/10 01:53:18;;;;;;;3.75;2.63;;;4.80;72.30;;;3.59;58.47;94100.22;5037431;28;20685;-88
2022/01/10 01:55:47;;;;;;;3.67;2.58;;;4.80;72.40;;;3.50;58.50;94109.81;5037763;28;20247;-88
2022/01/10 01:58:15;;;;;;;4.68;2.60;;;4.70;72.50;;;3.41;58.42;94097.84;5037305;28;20212;-88
2022/01/10 02:00:42;;;;;;;3.97;2.20;;;4.60;72.50;;;3.35;58.26;94103.72;5056480;28;20238;-88
2022/01/10 02:03:10;;;;;;;5.88;2.60;;;4.50;72.40;;;3.32;58.49;94117.81;5040649;28;20199;-87
2022/01/10 02:05:38;;;;;;;4.45;2.42;;;4.50;72.60;;;3.27;58.41;94111.50;5040580;28;20222;-88
2022/01/10 02:08:10;;;;;;;4.90;2.90;;;4.40;72.60;;;3.24;58.68;94110.06;5037089;28;20196;-88
2022/01/10 02:10:39;;;;;;;4.45;2.90;;;4.40;72.70;;;3.20;58.46;94116.56;5053191;28;21015;-87
2022/01/10 02:13:07;;;;;;;5.82;2.80;;;4.40;72.80;;;3.18;58.73;94121.88;5033696;28;20237;-88
2022/01/10 02:15:46;;;;;;;4.00;2.50;;;4.30;72.70;;;3.14;58.59;94130.19;5040670;28;20223;-87
2022/01/10 02:18:19;;;;;;;7.40;3.00;;;4.30;72.70;;;3.02;58.47;94130.50;5058531;28;20211;-88
2022/01/10 02:20:51;;;;;;;3.35;2.42;;;4.20;72.70;;;2.99;58.73;94132.59;5041409;28;20696;-88
2022/01/10 02:23:20;;;;;;;5.05;2.40;;;4.30;72.80;;;2.94;58.39;94140.06;5056908;28;20295;-88
2022/01/10 02:26:01;;;;;;;4.47;2.90;;;4.10;72.60;;;2.78;58.87;94128.75;5058790;28;20219;-86
2022/01/10 02:28:32;;;;;;;4.22;2.75;;;4.10;72.60;;;2.71;58.76;94132.94;5057309;28;20253;-88
2022/01/10 02:31:00;;;;;;;4.30;2.40;;;4.00;72.60;;;2.72;58.61;94148.34;5036268;28;20224;-88
2022/01/10 02:33:31;;;;;;;2.80;2.50;;;3.90;72.70;;;2.61;59.07;94145.25;5020662;28;20196;-87
2022/01/10 02:38:35;;;;;;;4.78;3.05;;;3.80;72.70;;;2.48;59.11;94148.31;5061344;28;20219;-88
2022/01/10 02:41:03;;;;;;;2.92;2.30;;;3.90;72.80;;;2.41;58.87;94155.94;5040207;28;20265;-87
2022/01/10 02:43:31;;;;;;;5.32;3.22;;;3.70;72.70;;;2.41;59.19;94161.09;5040348;28;20207;-88
2022/01/10 02:45:58;;;;;;;3.75;2.70;;;3.60;72.70;;;2.37;58.91;94168.38;5040638;28;20226;-87
2022/01/10 02:48:26;;;;;;;4.40;2.40;;;3.60;72.90;;;2.34;59.33;94168.69;5055946;28;20201;-87
2022/01/10 02:50:53;;;;;;;3.95;2.20;;;3.60;73.00;;;2.34;59.31;94173.06;5039777;28;20226;-87
2022/01/10 02:53:21;;;;;;;4.43;2.60;;;3.50;73.00;;;2.31;59.33;94170.81;5039807;28;20220;-87
2022/01/10 02:55:49;;;;;;;3.67;2.50;;;3.50;73.20;;;2.33;59.54;94168.84;5039663;28;20256;-87
2022/01/10 02:58:16;;;;;;;5.22;2.67;;;3.50;73.30;;;2.40;59.48;94182.78;5055536;28;20200;-88
2022/01/10 03:00:44;;;;;;;7.13;2.70;;;3.40;73.50;;;2.41;60.05;94168.88;5036216;28;20258;-87
2022/01/10 03:03:11;;;;;;;4.00;2.88;;;3.40;73.60;;;2.51;59.99;94179.06;5055924;28;20257;-87
2022/01/10 03:05:39;;;;;;;5.65;3.00;;;3.40;73.70;;;2.54;59.71;94176.19;5055949;28;20225;-88
2022/01/10 03:08:06;;;;;;;4.70;2.75;;;3.50;73.90;;;2.63;59.89;94175.19;5056096;28;20207;-87
2022/01/10 03:10:34;;;;;;;4.82;2.70;;;3.50;74.00;;;2.74;59.69;94184.44;5039744;28;20712;-87
2022/01/10 03:13:02;;;;;;;4.07;3.05;;;3.60;74.00;;;2.76;59.82;94174.72;5056044;28;20199;-88
2022/01/10 03:15:30;;;;;;;4.10;2.47;;;3.60;74.00;;;2.85;59.52;94191.88;5039776;28;20241;-86
2022/01/10 03:17:58;;;;;;;3.85;2.47;;;3.80;75.00;;;2.86;59.00;94184.94;5055385;28;20241;-88
2022/01/10 03:20:25;;;;;;;7.10;2.60;;;3.70;74.00;;;2.91;59.35;94190.41;5056147;28;20254;-87
2022/01/10 03:22:53;;;;;;;5.43;2.90;;;3.80;73.90;;;2.86;59.82;94179.75;5039588;28;20195;-87
2022/01/10 03:25:22;;;;;;;5.88;3.15;;;3.80;73.90;;;2.89;59.45;94184.59;5055949;28;20306;-87
2022/01/10 03:27:55;;;;;;;5.60;2.95;;;3.80;73.80;;;2.87;59.59;94187.34;5040764;28;20207;-86
2022/01/10 03:30:23;;;;;;;3.33;2.55;;;3.80;73.70;;;2.82;59.62;94189.63;5039211;28;20656;-87
2022/01/10 03:32:51;;;;;;;6.20;3.03;;;3.90;73.70;;;2.85;59.40;94204.03;5039161;28;20211;-87
2022/01/10 03:35:39;;;;;;;5.20;3.20;;;3.80;74.40;;;2.77;59.77;94201.41;5057487;28;20472;-87
2022/01/10 03:38:09;;;;;;;4.53;2.92;;;3.80;73.50;;;2.71;59.66;94202.88;5053808;28;20199;-88
2022/01/10 03:40:38;;;;;;;6.00;3.05;;;3.90;73.60;;;2.69;59.76;94210.00;5053995;28;20235;-87
2022/01/10 03:43:11;;;;;;;3.92;2.80;;;3.80;73.50;;;2.66;59.84;94215.50;5054889;28;20211;-88
2022/01/10 03:45:40;;;;;;;4.20;2.47;;;3.80;73.50;;;2.62;59.49;94211.63;5041473;28;20223;-88
2022/01/10 03:48:07;;;;;;;5.32;3.20;;;3.70;73.50;;;2.59;59.58;94217.91;5040611;28;20234;-88
2022/01/10 03:50:36;;;;;;;7.90;3.50;;;3.70;73.50;;;2.55;59.73;94220.03;5041595;28;20310;-88
2022/01/10 03:53:03;;;;;;;4.68;2.85;;;3.70;73.60;;;2.49;59.91;94220.66;5037825;28;20207;-88
2022/01/10 03:55:33;;;;;;;6.70;3.47;;;3.60;73.50;;;2.43;60.20;94215.28;5028191;28;20243;-88
2022/01/10 03:58:03;;;;;;;6.25;3.30;;;3.60;73.80;;;2.49;60.37;94230.19;5058312;28;20195;-89
2022/01/10 04:00:31;;;;;;;7.78;3.70;;;3.50;73.90;;;2.44;60.54;94227.28;5041303;28;20249;-89
2022/01/10 04:03:04;;;;;;;6.18;3.38;;;3.60;74.00;;;2.39;60.65;94215.63;5057707;28;20217;-88
2022/01/10 04:05:41;;;;;;;6.97;3.20;;;3.60;74.10;;;2.48;60.30;94228.56;5042985;28;20223;-88
2022/01/10 04:08:09;;;;;;;8.20;3.47;;;3.60;74.10;;;2.45;60.33;94231.47;5042140;28;20203;-88
2022/01/10 04:10:36;;;;;;;5.70;2.95;;;3.50;74.20;;;2.49;60.58;94243.13;5043122;28;20222;-88
2022/01/10 04:13:03;;;;;;;6.60;3.13;;;3.60;74.30;;;2.50;60.78;94248.16;5043116;28;20654;-88
2022/01/10 04:15:31;;;;;;;5.78;3.60;;;3.50;74.30;;;2.54;60.78;94249.47;5039015;28;20270;-88
2022/01/10 04:18:01;;;;;;;5.38;3.33;;;3.50;74.40;;;2.55;60.76;94242.50;5038962;28;20207;-88
2022/01/10 04:20:30;;;;;;;6.15;3.42;;;3.60;74.50;;;2.63;60.82;94257.25;5056229;28;20239;-87
2022/01/10 04:22:59;;;;;;;8.77;3.50;;;3.60;74.50;;;2.65;60.84;94256.13;5054693;28;20208;-89
2022/01/10 04:25:26;;;;;;;5.25;3.42;;;3.60;74.50;;;2.68;61.04;94262.75;5052095;28;20207;-88
2022/01/10 04:27:56;;;;;;;5.63;3.63;;;3.60;74.50;;;2.69;61.04;94261.78;5058977;28;20203;-88
2022/01/10 04:30:29;;;;;;;7.82;3.83;;;3.60;74.50;;;2.74;60.92;94266.50;5043993;28;20701;-88
2022/01/10 04:33:00;;;;;;;5.38;3.53;;;3.70;74.70;;;2.71;60.81;94265.00;5039488;28;20207;-88
2022/01/10 04:35:32;;;;;;;6.63;3.72;;;3.70;74.70;;;2.78;60.39;94266.00;5055518;28;20220;-89
2022/01/10 04:38:00;;;;;;;4.88;3.40;;;3.70;74.70;;;2.84;60.64;94273.13;5027176;28;20211;-88
2022/01/10 04:40:28;;;;;;;6.03;3.50;;;3.70;74.70;;;2.87;60.64;94278.00;5042109;28;20235;-88
2022/01/10 04:42:56;;;;;;;5.78;3.97;;;3.80;75.40;;;2.88;60.98;94278.78;5039002;28;20253;-87
2022/01/10 04:45:24;;;;;;;6.68;3.70;;;3.80;74.80;;;2.90;60.93;94279.44;5038739;28;20235;-88
2022/01/10 04:47:52;;;;;;;6.45;3.70;;;3.80;74.80;;;2.87;60.79;94278.00;5036528;28;20203;-87
2022/01/10 04:52:49;;;;;;;4.68;3.47;;;3.90;74.60;;;2.92;60.42;94287.06;5058490;28;20653;-88
2022/01/10 04:55:19;;;;;;;5.43;3.50;;;3.80;74.60;;;2.90;60.84;94295.00;5041813;28;20230;-87
2022/01/10 04:57:46;;;;;;;6.88;3.35;;;4.00;74.60;;;2.82;60.61;94287.19;5041847;28;20192;-89
2022/01/10 05:00:16;;;;;;;6.95;3.55;;;3.90;74.70;;;2.91;60.68;94306.97;5040961;28;20231;-88
2022/01/10 05:02:50;;;;;;;4.45;3.72;;;3.80;74.60;;;2.92;60.80;94310.38;5041173;28;20246;-88
2022/01/10 05:05:17;;;;;;;6.25;3.50;;;3.90;74.70;;;2.94;60.91;94314.44;5058532;28;20207;-88
2022/01/10 05:07:45;;;;;;;5.80;4.00;;;3.90;74.70;;;2.94;60.85;94313.63;5041338;28;20638;-88
2022/01/10 05:10:14;;;;;;;6.32;4.00;;;3.90;74.90;;;2.90;60.85;94300.19;5042062;28;20223;-88
2022/01/10 05:12:43;;;;;;;8.00;3.90;;;3.90;74.80;;;2.99;61.18;94319.13;5042109;28;20210;-89
2022/01/10 05:15:11;;;;;;;7.22;4.30;;;3.90;74.80;;;2.99;61.01;94316.53;5041862;28;20229;-88
2022/01/10 05:17:39;;;;;;;6.47;4.18;;;3.90;74.80;;;2.93;61.58;94312.81;5041393;28;20290;-88
2022/01/10 05:20:09;;;;;;;6.75;4.20;;;3.90;74.80;;;3.00;61.04;94321.56;5058231;28;20223;-88
2022/01/10 05:22:36;;;;;;;8.73;4.47;;;4.00;75.00;;;2.94;61.56;94317.03;5041571;28;20203;-89
2022/01/10 05:25:04;;;;;;;6.88;3.90;;;4.00;75.00;;;2.95;61.41;94316.03;5041098;28;20222;-88
2022/01/10 05:27:33;;;;;;;7.88;4.38;;;3.90;75.00;;;2.99;61.30;94324.31;5041683;28;20210;-88
2022/01/10 05:30:05;;;;;;;12.60;5.22;;;4.00;75.80;;;2.95;61.69;94317.84;5058034;28;20215;-88
2022/01/10 05:32:33;;;;;;;8.10;4.50;;;3.90;75.10;;;2.94;61.53;94323.97;5057957;28;20209;-88
2022/01/10 05:35:17;;;;;;;10.73;4.78;;;3.90;75.20;;;2.98;61.79;94333.03;5060211;28;20622;-89
2022/01/10 05:37:45;;;;;;;5.65;4.47;;;4.00;75.20;;;2.93;62.28;94333.53;5058182;28;20196;-88
2022/01/10 05:40:13;;;;;;;7.13;4.50;;;3.90;75.30;;;2.91;61.87;94326.91;5041116;28;20253;-89
2022/01/10 05:42:40;;;;;;;8.15;5.45;;;3.90;75.30;;;2.98;62.76;94338.22;5040445;28;20211;-89
2022/01/10 05:45:08;;;;;;;9.88;5.22;;;4.00;75.70;;;2.92;62.43;94333.69;5057767;28;20215;-87
2022/01/10 05:47:43;;;;;;;10.27;5.35;;;3.90;75.70;;;3.00;62.42;94341.47;5058093;28;20218;-89
2022/01/10 05:50:14;;;;;;;6.30;4.72;;;4.00;75.90;;;2.96;62.49;94340.97;5058097;28;20230;-89
2022/01/10 05:52:47;;;;;;;10.68;5.03;;;4.00;75.90;;;2.99;62.37;94356.22;5042191;28;20677;-88
2022/01/10 05:55:16;;;;;;;12.55;5.60;;;3.90;75.90;;;2.97;62.76;94352.16;5041399;28;20226;-89
2022/01/10 05:57:47;;;;;;;8.70;5.43;;;3.90;76.00;;;2.98;63.02;94364.13;5042179;28;20199;-89
2022/01/10 06:00:15;;;;;;;10.15;5.70;;;3.90;76.10;;;2.91;62.83;94353.59;5056858;28;20267;-89
2022/01/10 06:02:43;;;;;;;10.50;5.88;;;3.90;76.00;;;2.96;63.05;94366.88;5057631;28;20205;-89
2022/01/10 06:05:29;;;;;;;9.18;5.70;;;4.00;76.10;;;3.03;62.89;94372.25;5058894;28;20222;-89
2022/01/10 06:08:02;;;;;;;9.05;5.70;;;4.00;76.20;;;3.06;62.84;94371.94;5056605;28;20199;-88
2022/01/10 06:10:31;;;;;;;9.27;5.38;;;4.00;76.20;;;3.02;62.83;94368.03;5041038;28;20223;-88
2022/01/10 06:13:09;;;;;;;8.93;5.53;;;4.00;76.20;;;2.99;63.32;94366.59;5058503;28;20289;-88
2022/01/10 06:15:37;;;;;;;10.02;5.72;;;4.00;76.30;;;3.08;62.79;94382.16;5040661;28;20217;-88
2022/01/10 06:18:05;;;;;;;11.93;5.82;;;4.00;76.20;;;3.07;63.32;94381.31;5056375;28;20206;-88
2022/01/10 06:20:34;;;;;;;11.93;5.80;;;4.00;76.30;;;3.00;63.12;94385.50;5040304;28;20231;-88
2022/01/10 06:23:02;;;;;;;8.20;5.93;;;4.00;76.30;;;3.07;63.19;94393.47;5040440;28;20343;-88
2022/01/10 06:25:30;;;;;;;8.73;4.97;;;4.00;76.40;;;3.10;63.00;94399.16;5040125;28;20226;-88
2022/01/10 06:27:58;;;;;;;8.07;5.10;;;4.10;76.50;;;3.09;63.26;94402.72;5040445;28;20203;-88
2022/01/10 06:30:27;;;;;;;9.25;4.97;;;4.00;76.40;;;3.04;63.37;94398.00;5040652;28;20701;-88
2022/01/10 06:32:55;;;;;;;8.82;5.57;;;4.00;76.40;;;3.07;63.37;94403.84;5040450;28;20219;-89
2022/01/10 06:35:24;;;;;;;6.63;4.68;;;4.00;76.50;;;3.07;63.10;94409.81;5040340;28;20219;-88
2022/01/10 06:37:53;;;;;;;7.63;5.43;;;4.10;76.60;;;3.10;63.33;94425.06;5040346;28;20191;-88
2022/01/10 06:40:22;;;;;;;6.55;5.03;;;4.00;76.60;;;3.11;63.79;94428.47;5040169;28;20235;-88
2022/01/10 06:42:51;;;;;;;7.93;5.43;;;4.10;76.60;;;3.06;64.08;94423.75;5039747;28;20199;-89
2022/01/10 06:45:20;;;;;;;10.30;5.60;;;4.10;76.70;;;3.11;64.04;94441.41;5056910;28;20709;-88
2022/01/10 06:47:49;;;;;;;9.20;5.30;;;4.00;76.70;;;3.09;63.67;94435.56;5056363;28;20257;-88
2022/01/10 06:50:17;;;;;;;8.05;5.00;;;4.10;76.90;;;3.11;63.70;94451.78;5040108;28;20272;-88
2022/01/10 06:52:45;;;;;;;8.32;5.03;;;4.00;76.80;;;3.11;63.71;94447.41;5039314;28;20195;-89
2022/01/10 06:55:14;;;;;;;10.27;5.25;;;4.00;76.80;;;3.11;63.97;94451.78;5040563;28;20593;-89
2022/01/10 06:57:44;;;;;;;10.68;5.43;;;4.10;77.00;;;3.11;64.14;94454.38;5056667;28;20210;-88
2022/01/10 07:00:14;;;;;;;7.95;4.93;;;4.10;77.00;;;3.07;64.08;94455.66;5040291;28;20724;-88
2022/01/10 07:02:48;;;;;;;9.38;4.65;;;4.10;77.00;;;3.10;63.62;94458.75;5041367;28;20201;-88
2022/01/10 07:05:16;;;;;;;7.88;5.45;;;4.10;77.10;;;3.12;64.38;94471.53;5055896;28;20292;-88
2022/01/10 07:07:47;;;;;;;9.27;5.75;;;4.10;77.10;;;3.02;64.44;94462.09;5056480;28;20286;-89
2022/01/10 07:10:47;;;;;;;8.90;5.82;;;4.00;77.20;;;3.02;64.31;94469.09;5027427;28;20227;-88
2022/01/10 07:13:15;;;;;;;9.35;5.55;;;4.10;77.20;;;3.10;64.57;94479.47;5056173;28;20195;-88
2022/01/10 07:15:44;;;;;;;9.63;5.82;;;4.10;77.30;;;3.11;64.28;94478.50;5056177;28;20685;-88
2022/01/10 07:18:12;;;;;;;9.30;5.75;;;4.00;77.30;;;3.13;64.66;94479.16;5039525;28;20560;-88
2022/01/10 07:20:44;;;;;;;7.25;5.63;;;4.10;77.50;;;3.15;64.46;94494.53;5040347;28;20321;-88
2022/01/10 07:23:12;;;;;;;11.25;6.35;;;4.10;77.50;;;3.15;64.87;94495.38;5039812;28;20198;-88
2022/01/10 07:25:39;;;;;;;10.10;6.70;;;4.10;77.50;;;3.14;64.85;94492.94;5039528;28;20246;-87
2022/01/10 07:28:06;;;;;;;9.25;5.75;;;4.10;77.60;;;3.17;65.15;94514.16;5038801;28;20203;-88
2022/01/10 07:30:34;;;;;;;7.90;5.70;;;4.10;77.70;;;3.09;64.60;94487.38;5055974;28;20273;-88
2022/01/10 07:33:02;;;;;;;6.90;5.07;;;4.10;77.70;;;3.19;64.71;94506.22;5039255;28;20565;-88
2022/01/10 07:35:30;;;;;;;8.57;5.18;;;4.10;77.70;;;3.25;64.27;94518.56;5039370;28;20689;-88
2022/01/10 07:37:57;;;;;;;9.10;5.68;;;4.10;77.60;;;3.27;64.65;94513.22;5039337;28;20195;-88
2022/01/10 07:40:25;;;;;;;7.80;5.40;;;4.10;77.60;;;3.22;64.93;94505.09;5055656;28;20713;-87
2022/01/10 07:42:53;;;;;;;8.50;5.82;;;4.20;77.80;;;3.30;65.03;94518.09;5039360;28;20199;-88
2022/01/10 07:45:32;;;;;;;8.98;5.88;;;4.20;77.80;;;3.26;64.93;94511.59;5041833;28;20310;-88
2022/01/10 07:48:00;;;;;;;8.13;6.15;;;4.20;77.80;;;3.28;65.14;94525.22;5039028;28;20215;-88
2022/01/10 07:50:28;;;;;;;8.13;5.38;;;4.20;77.80;;;3.27;65.12;94513.22;5055466;28;20773;-88
2022/01/10 07:52:55;;;;;;;8.65;6.00;;;4.20;77.80;;;3.32;65.18;94529.09;5039181;28;20645;-87
2022/01/10 07:55:23;;;;;;;8.63;5.70;;;4.20;77.90;;;3.26;65.06;94529.72;5038980;28;20735;-88
2022/01/10 07:57:50;;;;;;;7.32;5.80;;;4.20;77.90;;;3.34;65.52;94543.56;5038902;28;20333;-88
2022/01/10 08:00:17;;;;;;;8.60;6.25;;;4.20;77.90;;;3.27;65.29;94534.78;5055168;28;20235;-88
2022/01/10 08:02:44;;;;;;;7.43;5.43;;;4.20;77.90;;;3.34;65.20;94543.56;5055676;28;20199;-88
2022/01/10 08:05:12;;;;;;;8.35;5.47;;;4.30;78.00;;;3.40;64.90;94556.84;5039004;28;20280;-88
2022/01/10 08:07:41;;;;;;;9.45;5.82;;;4.30;78.00;;;3.41;64.97;94559.28;5039020;28;20256;-88
2022/01/10 08:10:09;;;;;;;6.85;5.88;;;4.30;78.00;;;3.39;64.75;94550.03;5038905;28;20219;-88
2022/01/10 08:12:36;;;;;;;7.45;5.15;;;4.30;78.00;;;3.43;64.76;94559.94;5038685;28;20336;-87
2022/01/10 08:15:04;;;;;;;7.38;5.53;;;4.30;78.00;;;3.41;64.93;94548.13;5038743;28;20302;-88
2022/01/10 08:17:32;;;;;;;8.88;5.82;;;4.30;78.00;;;3.41;65.20;94551.50;5038798;28;20219;-88
2022/01/10 08:20:00;;;;;;;7.15;5.82;;;4.20;78.10;;;3.39;65.28;94565.59;5054953;28;20223;-88
2022/01/10 08:22:27;;;;;;;6.63;5.28;;;4.30;78.20;;;3.39;65.70;94563.00;5038865;28;20207;-88
2022/01/10 08:24:55;;;;;;;6.75;5.45;;;4.40;78.30;;;3.42;65.72;94568.69;5038813;28;20293;-88
2022/01/10 08:27:22;;;;;;;6.10;5.47;;;4.30;78.30;;;3.37;65.72;94568.34;5038887;28;20203;-88
2022/01/10 08:29:51;;;;;;;6.45;5.63;;;4.30;78.30;;;3.41;65.54;94576.63;5040001;28;20250;-88
2022/01/10 08:32:18;;;;;;;7.47;5.78;;;4.40;78.40;;;3.47;65.52;94578.59;5042416;28;20550;-87
2022/01/10 08:34:47;;;;;;;7.10;5.43;;;4.30;78.30;;;3.42;65.63;94580.81;5042429;28;20223;-88
2022/01/10 08:37:14;;;;;;;7.97;5.75;;;4.40;78.40;;;3.42;65.14;94583.41;5042374;28;20253;-88
2022/01/10 08:39:42;;;;;;;8.93;6.30;;;4.40;78.50;;;3.50;65.42;94588.66;5058643;28;20257;-87
2022/01/10 08:42:10;;;;;;;8.10;5.82;;;4.30;78.40;;;3.53;65.41;94601.31;5058516;28;20209;-88
2022/01/10 08:44:37;;;;;;;10.75;6.80;;;4.40;78.50;;;3.45;65.48;94586.50;5042463;28;20200;-86
2022/01/10 08:47:05;;;;;;;7.90;6.25;;;4.40;78.50;;;3.53;65.34;94601.31;5042543;28;20657;-87
2022/01/10 08:49:32;;;;;;;9.30;6.03;;;4.40;78.40;;;3.59;65.35;94612.81;5042342;28;20207;-88
2022/01/10 08:52:00;;;;;;;9.40;6.63;;;4.40;78.50;;;3.59;65.61;94618.84;5042476;28;20261;-87
2022/01/10 08:54:28;;;;;;;8.35;6.53;;;4.40;78.40;;;3.62;65.19;94621.09;5041956;28;20218;-88
2022/01/10 08:56:55;;;;;;;7.57;6.15;;;4.50;78.50;;;3.61;65.22;94616.88;5042591;28;20290;-87
2022/01/10 08:59:24;;;;;;;8.82;6.13;;;4.40;78.40;;;3.61;65.13;94616.09;5058739;28;20227;-87
2022/01/10 09:01:51;;;;;;;8.57;6.75;;;4.50;78.50;;;3.67;65.16;94624.06;5041948;28;20234;-87
2022/01/10 09:04:19;;;;;;;8.23;5.80;;;4.60;78.50;;;3.68;65.19;94617.88;5041860;28;20203;-87
2022/01/10 09:06:49;;;;;;;10.60;7.22;;;4.50;78.50;;;3.67;65.34;94624.06;5058594;28;20223;-87
2022/01/10 09:09:20;;;;;;;8.07;6.25;;;4.60;78.60;;;3.73;65.09;94645.94;5059166;28;20290;-87
2022/01/10 09:11:49;;;;;;;7.93;6.70;;;4.50;78.50;;;3.76;65.13;94647.41;5041562;28;20656;-87
2022/01/10 09:14:17;;;;;;;8.93;6.63;;;4.50;78.50;;;3.76;65.50;94656.03;5042005;28;20203;-87
2022/01/10 09:16:45;;;;;;;10.90;6.85;;;4.60;78.50;;;3.75;65.31;94651.81;5057925;28;20215;-87
2022/01/10 09:19:13;;;;;;;8.48;6.40;;;4.60;78.50;;;3.77;65.28;94649.88;5058115;28;20207;-87
2022/01/10 09:21:41;;;;;;;8.98;6.22;;;4.60;78.40;;;3.76;65.13;94657.78;5041443;28;20700;-87
2022/01/10 09:24:09;;;;;;;7.65;6.60;;;4.60;78.50;;;3.81;65.19;94660.75;5058270;28;20195;-87
2022/01/10 09:26:37;;;;;;;9.73;6.60;;;4.70;78.60;;;3.85;64.67;94662.06;5057952;28;20345;-87
2022/01/10 09:29:04;;;;;;;10.05;7.07;;;4.60;78.50;;;3.87;65.39;94669.69;5041027;28;20211;-87
2022/01/10 09:31:33;;;;;;;11.25;7.00;;;4.60;78.50;;;3.87;65.03;94664.50;5041859;28;20219;-87
2022/01/10 09:34:02;;;;;;;9.98;7.00;;;4.70;78.50;;;3.89;64.89;94662.56;5041716;28;20298;-87
2022/01/10 09:36:34;;;;;;;11.50;7.38;;;4.70;78.50;;;3.85;64.89;94654.28;5041954;28;20211;-87
2022/01/10 09:39:02;;;;;;;11.80;9.10;;;4.70;78.50;;;3.83;65.25;94651.84;5041836;28;20294;-87
2022/01/10 09:41:30;;;;;;;10.00;8.25;;;4.70;78.60;;;3.87;65.51;94657.53;5039824;28;20704;-87
2022/01/10 09:44:01;;;;;;;11.43;8.13;;;4.70;78.70;;;3.88;65.57;94666.91;5057689;28;20194;-87
2022/01/10 09:46:30;;;;;;;12.45;8.50;;;4.80;78.70;;;3.85;65.62;94668.03;5057368;28;20716;-87
2022/01/10 09:49:00;;;;;;;10.55;8.35;;;4.70;78.70;;;3.87;66.02;94662.72;5057527;28;20199;-87
2022/01/10 09:51:29;;;;;;;11.80;8.85;;;4.70;78.80;;;3.90;65.74;94675.38;5057761;28;20317;-87
2022/01/10 09:53:59;;;;;;;10.10;8.40;;;4.80;78.90;;;3.92;65.71;94676.03;5041145;28;20191;-87
2022/01/10 09:56:29;;;;;;;10.38;7.80;;;4.70;78.90;;;3.91;65.63;94674.41;5057368;28;20676;-87
2022/01/10 09:58:57;;;;;;;12.38;8.07;;;4.70;78.90;;;3.94;66.00;94671.50;5041278;28;20238;-86
2022/01/10 10:01:27;;;;;;;10.75;8.02;;;4.80;79.00;;;3.89;65.59;94675.53;5041040;28;20276;-86
2022/01/10 10:03:58;;;;;;;10.68;7.78;;;4.70;79.00;;;3.98;65.72;94684.97;5040013;28;20257;-86
2022/01/10 10:06:31;;;;;;;12.05;8.55;;;4.70;78.90;;;3.94;65.61;94676.69;5057569;28;20701;-86
2022/01/10 10:09:02;;;;;;;12.38;8.75;;;4.80;79.80;;;3.99;65.84;94676.22;5040957;28;20286;-86
2022/01/10 10:11:47;;;;;;;12.30;9.00;;;4.80;79.10;;;3.97;65.90;94691.94;5057106;28;20223;-85
2022/01/10 10:14:20;;;;;;;11.07;8.23;;;4.80;79.00;;;3.97;65.89;94685.94;5040677;28;20637;-86
2022/01/10 10:16:51;;;;;;;11.20;7.90;;;4.80;79.10;;;3.97;66.00;94691.94;5057588;28;20191;-86
2022/01/10 10:19:29;;;;;;;11.40;8.63;;;4.70;79.10;;;4.03;65.73;94692.28;5057226;28;20204;-86
2022/01/10 10:21:58;;;;;;;10.45;8.30;;;4.80;79.20;;;4.09;65.67;94691.66;5040375;28;20689;-85
2022/01/10 10:24:27;;;;;;;10.13;8.35;;;4.80;79.20;;;4.13;66.13;94703.34;5040456;28;20198;-85
2022/01/10 10:26:56;;;;;;;10.75;7.85;;;4.90;79.30;;;4.16;65.74;94697.84;5057457;28;20203;-86
2022/01/10 10:29:28;;;;;;;8.98;7.80;;;4.90;79.30;;;4.13;66.12;94692.97;5057812;28;20196;-85
2022/01/10 10:31:57;;;;;;;8.82;7.30;;;4.90;79.30;;;4.20;65.81;94703.53;5040522;28;20231;-86
2022/01/10 10:34:29;;;;;;;9.50;7.60;;;4.90;79.30;;;4.28;65.68;94714.75;5040476;28;20230;-84
2022/01/10 10:37:12;;;;;;;11.48;7.68;;;4.90;79.20;;;4.23;65.57;94708.41;5040464;28;20618;-84
2022/01/10 10:39:43;;;;;;;10.30;8.20;;;5.00;79.20;;;4.20;65.50;94709.56;5056256;28;20203;-85
2022/01/10 10:42:15;;;;;;;10.95;8.00;;;5.00;79.20;;;4.28;65.88;94717.34;5056708;28;20692;-85
2022/01/10 10:44:44;;;;;;;8.90;6.65;;;5.10;79.30;;;4.30;65.84;94720.59;5040278;28;20218;-84
2022/01/10 10:47:12;;;;;;;9.50;7.03;;;5.10;79.30;;;4.35;65.91;94727.13;5039408;28;20195;-85
2022/01/10 10:49:45;;;;;;;9.32;6.97;;;5.00;79.30;;;4.40;65.91;94728.25;5056970;28;20287;-85
2022/01/10 10:52:14;;;;;;;9.20;7.43;;;5.10;79.30;;;4.40;65.34;94724.84;5056605;28;20288;-84
2022/01/10 10:54:42;;;;;;;8.73;6.82;;;5.10;79.30;;;4.46;65.64;94729.41;5039680;28;20239;-85
2022/01/10 10:57:11;;;;;;;10.57;7.28;;;5.10;79.20;;;4.39;65.44;94721.44;5039883;28;20270;-85